Time;durP1;ratioP1;P1;durP2;ratioP2;P2;SDS_P1;SDS_P2;PMS_P1;PMS_P2;Temp;Humidity;BMP_temperature;BMP_pressure;BME280_temperature;BME280_humidity;BME280_pressure;Samples;Min_cycle;Max_cycle;Signal;HPM_P1;HPM_P2
2023/07/18 00:02:07;;;;;;;6.13;3.80;;;20.00;99.90;;;;;;5018166;28;20173;-75
2023/07/18 00:04:32;;;;;;;4.28;2.50;;;19.80;99.90;;;;;;5023024;28;20205;-76
2023/07/18 00:06:58;;;;;;;4.22;2.65;;;19.70;99.90;;;;;;5019995;28;20592;-74
2023/07/18 00:09:24;;;;;;;5.30;2.70;;;19.70;99.90;;;;;;5018845;28;20270;-75
2023/07/18 00:11:50;;;;;;;3.92;2.13;;;19.60;99.90;;;;;;5018153;28;20213;-74
2023/07/18 00:14:16;;;;;;;4.07;2.50;;;19.70;99.90;;;;;;5019647;28;20216;-73
2023/07/18 00:16:44;;;;;;;4.43;2.30;;;19.70;99.90;;;;;;5017617;28;20169;-74
2023/07/18 00:19:12;;;;;;;3.30;1.92;;;19.70;99.90;;;;;;5019635;28;20742;-75
2023/07/18 00:21:38;;;;;;;3.78;2.25;;;19.60;99.90;;;;;;5016948;28;20209;-76
2023/07/18 00:24:04;;;;;;;3.05;1.88;;;19.60;99.90;;;;;;5019933;28;20219;-75
2023/07/18 00:26:30;;;;;;;4.20;2.72;;;19.40;99.90;;;;;;5017350;28;20574;-75
2023/07/18 00:28:56;;;;;;;5.70;3.05;;;19.40;99.90;;;;;;5020424;28;20179;-74
2023/07/18 00:31:21;;;;;;;5.45;3.60;;;19.40;99.90;;;;;;5022161;28;20740;-74
2023/07/18 00:33:47;;;;;;;7.38;5.10;;;19.40;99.90;;;;;;5016606;28;20731;-74
2023/07/18 00:36:13;;;;;;;6.82;3.53;;;19.30;99.90;;;;;;5020181;28;20682;-75
2023/07/18 00:38:39;;;;;;;3.45;2.33;;;19.30;99.90;;;;;;5016912;28;20301;-75
2023/07/18 00:41:05;;;;;;;5.20;4.03;;;19.20;99.90;;;;;;5016926;28;20275;-75
2023/07/18 00:43:33;;;;;;;3.58;2.42;;;19.10;99.90;;;;;;5016954;28;20197;-74
2023/07/18 00:45:59;;;;;;;5.18;2.70;;;19.10;99.90;;;;;;5019074;28;20213;-74
2023/07/18 00:48:27;;;;;;;5.85;2.45;;;19.20;99.90;;;;;;5017245;28;20212;-75
2023/07/18 00:50:53;;;;;;;4.63;3.08;;;19.20;99.90;;;;;;5018568;28;20231;-72
2023/07/18 00:53:22;;;;;;;3.47;2.20;;;19.10;99.90;;;;;;5014700;28;20296;-74
2023/07/18 00:55:49;;;;;;;4.57;1.95;;;19.20;99.90;;;;;;5018631;28;20165;-76
2023/07/18 00:58:18;;;;;;;5.30;2.70;;;19.20;99.90;;;;;;5017511;28;20243;-69
2023/07/18 01:00:44;;;;;;;4.63;2.40;;;19.20;99.90;;;;;;5014931;28;20295;-75
2023/07/18 01:03:09;;;;;;;3.78;2.13;;;19.00;99.90;;;;;;5018165;28;20702;-75
2023/07/18 01:05:35;;;;;;;3.55;2.38;;;18.90;99.90;;;;;;5006695;28;20241;-74
2023/07/18 01:08:03;;;;;;;2.60;2.00;;;18.80;99.90;;;;;;5018852;28;20184;-76
2023/07/18 01:10:28;;;;;;;3.42;1.77;;;18.80;99.90;;;;;;5017161;28;20216;-74
2023/07/18 01:12:57;;;;;;;3.10;1.83;;;18.70;99.90;;;;;;5018318;28;20235;-75
2023/07/18 01:15:24;;;;;;;4.50;2.40;;;18.70;99.90;;;;;;5014799;28;20223;-73
2023/07/18 01:17:50;;;;;;;2.97;2.63;;;18.70;99.90;;;;;;5016139;28;20224;-74
2023/07/18 01:20:21;;;;;;;2.90;2.10;;;18.80;99.90;;;;;;5027126;28;20212;-75
2023/07/18 01:22:53;;;;;;;4.05;2.17;;;18.80;99.90;;;;;;5012838;28;20165;-74
2023/07/18 01:25:19;;;;;;;6.47;2.50;;;18.70;99.90;;;;;;5007084;28;20356;-74
2023/07/18 01:27:46;;;;;;;3.83;2.30;;;18.80;99.90;;;;;;5028148;28;20215;-74
2023/07/18 01:30:13;;;;;;;2.92;1.70;;;18.70;99.90;;;;;;5014997;28;20231;-75
2023/07/18 01:32:38;;;;;;;6.07;2.50;;;18.70;99.90;;;;;;5018539;28;20943;-74
2023/07/18 01:35:08;;;;;;;4.20;2.40;;;18.70;99.90;;;;;;5021052;28;20200;-74
2023/07/18 01:37:35;;;;;;;3.45;2.42;;;18.60;99.90;;;;;;5015675;28;20181;-74
2023/07/18 01:40:01;;;;;;;4.45;2.70;;;18.60;99.90;;;;;;5013897;28;20226;-75
2023/07/18 01:42:27;;;;;;;5.55;2.50;;;18.60;99.90;;;;;;5012574;28;20213;-74
2023/07/18 01:44:52;;;;;;;3.55;1.80;;;18.60;99.90;;;;;;5019070;28;20215;-75
2023/07/18 01:47:18;;;;;;;4.68;2.60;;;18.60;99.90;;;;;;5017186;28;20215;-76
2023/07/18 01:49:44;;;;;;;3.97;2.10;;;18.60;99.90;;;;;;5017099;28;20230;-76
2023/07/18 01:52:10;;;;;;;3.83;2.15;;;18.60;99.90;;;;;;5017941;28;20711;-75
2023/07/18 01:54:36;;;;;;;3.50;2.45;;;18.60;99.90;;;;;;5017317;28;20219;-74
2023/07/18 01:57:03;;;;;;;4.38;2.13;;;18.60;99.90;;;;;;5016851;28;20200;-75
2023/07/18 01:59:29;;;;;;;5.05;1.95;;;18.40;99.90;;;;;;5010927;28;20308;-75
2023/07/18 02:01:54;;;;;;;3.67;2.30;;;18.40;99.90;;;;;;5022059;28;20566;-74
2023/07/18 02:04:20;;;;;;;4.30;2.47;;;18.30;99.90;;;;;;5017971;28;20227;-74
2023/07/18 02:06:45;;;;;;;4.15;2.00;;;18.30;99.90;;;;;;5020131;28;20208;-75
2023/07/18 02:09:11;;;;;;;6.65;2.70;;;18.30;99.90;;;;;;5023169;28;20208;-74
2023/07/18 02:11:37;;;;;;;4.20;2.25;;;18.20;99.90;;;;;;5016800;28;20219;-74
2023/07/18 02:14:03;;;;;;;5.18;2.33;;;18.10;99.90;;;;;;5022620;28;20209;-75
2023/07/18 02:16:29;;;;;;;3.38;2.47;;;18.10;99.90;;;;;;5019572;28;20188;-75
2023/07/18 02:19:00;;;;;;;4.90;2.33;;;18.10;99.90;;;;;;5021876;28;20205;-75
2023/07/18 02:21:25;;;;;;;4.22;2.30;;;18.10;99.90;;;;;;5020089;28;20229;-75
2023/07/18 02:23:51;;;;;;;3.42;2.50;;;18.10;99.90;;;;;;5020680;28;20267;-75
2023/07/18 02:26:17;;;;;;;3.53;2.42;;;18.00;99.90;;;;;;5021335;28;20180;-74
2023/07/18 02:28:43;;;;;;;4.47;2.30;;;18.00;99.90;;;;;;5021493;28;20188;-75
2023/07/18 02:31:08;;;;;;;5.22;2.47;;;18.00;99.90;;;;;;5022012;28;20208;-75
2023/07/18 02:33:34;;;;;;;6.22;2.13;;;18.00;99.90;;;;;;5021494;28;20694;-75
2023/07/18 02:36:00;;;;;;;3.40;2.28;;;17.90;99.90;;;;;;5019124;28;20751;-75
2023/07/18 02:38:25;;;;;;;2.67;1.95;;;17.90;99.90;;;;;;5022229;28;20757;-74
2023/07/18 02:40:52;;;;;;;3.45;2.53;;;17.70;99.90;;;;;;5019767;28;20563;-73
2023/07/18 02:43:17;;;;;;;5.25;2.20;;;17.80;99.90;;;;;;5022857;28;20266;-75
2023/07/18 02:45:43;;;;;;;3.28;2.30;;;17.80;99.90;;;;;;5019081;28;20209;-75
2023/07/18 02:48:09;;;;;;;4.25;2.53;;;17.70;99.90;;;;;;5032725;28;20205;-73
2023/07/18 02:50:35;;;;;;;4.40;2.60;;;17.60;99.90;;;;;;5004884;28;20263;-75
2023/07/18 02:53:00;;;;;;;3.80;2.63;;;17.60;99.90;;;;;;5018163;28;20264;-74
2023/07/18 02:55:27;;;;;;;3.17;2.00;;;17.70;99.90;;;;;;5021013;28;20263;-75
2023/07/18 02:57:53;;;;;;;4.95;2.65;;;17.60;99.90;;;;;;5020957;28;20213;-74
2023/07/18 03:00:19;;;;;;;4.43;2.47;;;17.60;99.90;;;;;;5019048;28;20590;-75
2023/07/18 03:02:48;;;;;;;4.13;2.67;;;17.60;99.90;;;;;;5020067;28;20641;-74
2023/07/18 03:05:17;;;;;;;3.55;2.53;;;17.60;99.90;;;;;;5020789;28;20193;-75
2023/07/18 03:07:44;;;;;;;3.33;2.70;;;17.60;99.90;;;;;;5020009;28;20706;-75
2023/07/18 03:10:10;;;;;;;4.63;2.58;;;17.60;99.90;;;;;;5020472;28;20272;-75
2023/07/18 03:12:35;;;;;;;4.20;2.75;;;17.60;99.90;;;;;;5014029;28;20221;-74
2023/07/18 03:15:02;;;;;;;6.60;2.70;;;17.70;99.90;;;;;;5018411;28;20263;-75
2023/07/18 03:17:27;;;;;;;3.53;2.30;;;17.70;99.90;;;;;;5012840;28;20270;-75
2023/07/18 03:19:53;;;;;;;4.63;2.75;;;17.80;99.90;;;;;;5016486;28;20205;-72
2023/07/18 03:22:19;;;;;;;5.78;2.70;;;17.70;99.90;;;;;;5021994;28;20595;-74
2023/07/18 03:24:47;;;;;;;3.80;2.55;;;17.80;99.90;;;;;;5012086;28;20228;-75
2023/07/18 03:27:13;;;;;;;2.97;2.25;;;17.70;99.90;;;;;;5016550;28;20211;-72
2023/07/18 03:29:38;;;;;;;3.95;2.72;;;17.70;99.90;;;;;;5014467;28;20325;-75
2023/07/18 03:32:05;;;;;;;5.05;2.97;;;17.60;99.90;;;;;;5022916;28;20185;-75
2023/07/18 03:34:30;;;;;;;4.32;3.08;;;17.60;99.90;;;;;;5017886;28;20220;-72
2023/07/18 03:36:56;;;;;;;3.70;2.75;;;17.60;99.90;;;;;;5019296;28;20932;-75
2023/07/18 03:39:22;;;;;;;5.63;2.92;;;17.60;99.90;;;;;;5015171;28;20208;-75
2023/07/18 03:41:47;;;;;;;4.05;2.50;;;18.10;99.90;;;;;;5017006;28;20211;-75
2023/07/18 03:44:13;;;;;;;5.55;3.00;;;18.50;99.90;;;;;;5020821;28;20300;-75
2023/07/18 03:46:38;;;;;;;4.50;2.35;;;19.10;99.90;;;;;;5018954;28;20723;-75
2023/07/18 03:49:04;;;;;;;7.25;3.00;;;19.70;99.90;;;;;;5021286;28;20204;-75
2023/07/18 03:51:30;;;;;;;5.50;2.65;;;20.00;99.90;;;;;;5018451;28;20262;-75
2023/07/18 03:53:55;;;;;;;3.45;2.33;;;20.40;99.90;;;;;;5017471;28;20714;-75
2023/07/18 03:56:21;;;;;;;4.13;3.08;;;21.30;99.90;;;;;;5021009;28;20452;-76
2023/07/18 03:58:46;;;;;;;6.07;2.28;;;22.20;99.90;;;;;;5016535;28;20185;-72
2023/07/18 04:01:12;;;;;;;3.40;2.60;;;22.60;99.90;;;;;;5021371;28;20269;-75
2023/07/18 04:03:39;;;;;;;2.90;1.98;;;22.60;99.90;;;;;;5018671;28;20214;-75
2023/07/18 04:06:05;;;;;;;4.78;2.50;;;22.90;99.90;;;;;;5020070;28;20228;-75
2023/07/18 04:08:31;;;;;;;4.07;2.42;;;23.10;99.90;;;;;;5015620;28;20236;-75
2023/07/18 04:10:58;;;;;;;3.97;2.60;;;23.20;99.90;;;;;;5015799;28;20615;-75
2023/07/18 04:13:26;;;;;;;2.72;2.17;;;23.10;99.90;;;;;;5018174;28;20220;-75
2023/07/18 04:15:55;;;;;;;4.15;2.20;;;23.50;99.90;;;;;;5021911;28;20217;-74
2023/07/18 04:18:21;;;;;;;3.65;2.22;;;24.30;99.90;;;;;;5019273;28;20212;-75
2023/07/18 04:20:49;;;;;;;3.40;2.33;;;25.50;99.90;;;;;;5020878;28;20690;-75
2023/07/18 04:23:14;;;;;;;3.65;2.40;;;26.20;99.90;;;;;;5018944;28;20200;-75
2023/07/18 04:26:02;;;;;;;4.35;2.63;;;27.00;99.90;;;;;;5015085;28;20689;-75
2023/07/18 04:28:29;;;;;;;5.15;2.63;;;27.40;99.90;;;;;;5020134;28;20595;-76
2023/07/18 04:30:55;;;;;;;6.63;2.38;;;27.30;99.90;;;;;;5017109;28;20213;-75
2023/07/18 04:33:21;;;;;;;3.65;2.17;;;27.60;99.90;;;;;;5016901;28;20212;-76
2023/07/18 04:35:47;;;;;;;3.92;2.50;;;28.00;99.90;;;;;;5018080;28;20204;-75
2023/07/18 04:38:16;;;;;;;3.13;2.10;;;28.10;99.90;;;;;;5018869;28;20185;-75
2023/07/18 04:40:42;;;;;;;4.07;2.38;;;28.50;99.90;;;;;;5014407;28;20740;-76
2023/07/18 04:43:08;;;;;;;5.63;2.47;;;28.90;99.90;;;;;;5017719;28;20209;-76
2023/07/18 04:45:49;;;;;;;6.30;2.60;;;29.00;99.90;;;;;;5018814;28;20209;-76
2023/07/18 04:48:16;;;;;;;3.38;2.10;;;29.20;99.90;;;;;;5020260;28;20208;-75
2023/07/18 04:50:43;;;;;;;3.67;2.20;;;29.50;99.90;;;;;;5011622;28;20702;-75
2023/07/18 04:53:10;;;;;;;4.70;2.55;;;29.70;99.90;;;;;;5014444;28;20207;-76
2023/07/18 04:55:36;;;;;;;3.30;2.42;;;29.90;99.90;;;;;;5016037;28;20170;-75
2023/07/18 04:58:03;;;;;;;6.32;2.58;;;29.90;99.90;;;;;;5023815;28;20219;-75
2023/07/18 05:00:30;;;;;;;3.90;2.38;;;30.20;99.90;;;;;;5014932;28;20223;-76
2023/07/18 05:02:56;;;;;;;4.00;2.72;;;30.20;99.90;;;;;;5008236;28;20212;-76
2023/07/18 05:05:23;;;;;;;5.85;2.72;;;30.30;99.90;;;;;;5009384;28;20617;-76
2023/07/18 05:07:48;;;;;;;4.88;2.78;;;30.50;99.90;;;;;;5002433;28;20178;-76
2023/07/18 05:10:14;;;;;;;5.13;2.80;;;30.70;99.90;;;;;;5007896;28;20220;-76
2023/07/18 05:12:40;;;;;;;4.63;2.88;;;30.40;99.90;;;;;;5012404;28;20211;-74
2023/07/18 05:15:07;;;;;;;5.00;2.65;;;30.50;99.30;;;;;;5008762;28;20296;-74
2023/07/18 05:17:33;;;;;;;2.92;2.22;;;30.80;99.30;;;;;;5012983;28;20212;-76
2023/07/18 05:19:58;;;;;;;4.00;2.58;;;30.90;98.50;;;;;;5009538;28;20216;-76
2023/07/18 05:22:24;;;;;;;5.15;2.65;;;31.60;97.60;;;;;;5006209;28;20223;-76
2023/07/18 05:24:50;;;;;;;4.45;2.53;;;31.50;96.90;;;;;;5010549;28;20307;-75
2023/07/18 05:27:16;;;;;;;3.45;2.72;;;32.00;96.00;;;;;;5018725;28;20291;-76
2023/07/18 05:29:41;;;;;;;6.30;3.05;;;31.50;96.40;;;;;;5013941;28;20220;-73
2023/07/18 05:32:07;;;;;;;5.22;2.83;;;30.70;96.40;;;;;;5019074;28;20223;-76
2023/07/18 05:34:33;;;;;;;4.60;3.17;;;30.70;97.20;;;;;;5016410;28;20208;-76
2023/07/18 05:37:00;;;;;;;4.40;2.95;;;30.80;97.00;;;;;;5016644;28;20614;-76
2023/07/18 05:39:27;;;;;;;3.97;2.53;;;30.70;96.70;;;;;;5016578;28;20216;-76
2023/07/18 05:41:56;;;;;;;5.18;2.83;;;31.20;96.30;;;;;;5010449;28;20262;-77
2023/07/18 05:44:22;;;;;;;4.93;2.92;;;32.10;95.00;;;;;;5013083;28;20217;-76
2023/07/18 05:46:47;;;;;;;4.60;2.92;;;33.00;93.60;;;;;;5007850;28;20183;-76
2023/07/18 05:49:14;;;;;;;3.40;2.70;;;33.20;92.90;;;;;;5012331;28;20201;-76
2023/07/18 05:51:40;;;;;;;5.35;2.80;;;31.70;92.60;;;;;;5011160;28;20569;-76
2023/07/18 05:54:05;;;;;;;4.88;2.92;;;31.40;94.20;;;;;;5011654;28;20212;-76
2023/07/18 05:56:34;;;;;;;5.40;2.78;;;31.50;94.00;;;;;;5015307;28;20269;-75
2023/07/18 05:59:00;;;;;;;6.25;2.90;;;31.70;93.70;;;;;;5011588;28;20701;-74
2023/07/18 06:01:26;;;;;;;4.63;3.00;;;31.20;93.80;;;;;;5023743;28;20290;-74
2023/07/18 06:03:51;;;;;;;4.68;2.92;;;32.10;93.30;;;;;;5015613;28;20219;-73
2023/07/18 06:06:19;;;;;;;4.97;2.80;;;32.70;92.80;;;;;;5020758;28;20220;-75
2023/07/18 06:08:45;;;;;;;6.25;2.80;;;32.70;92.10;;;;;;5017977;28;20326;-72
2023/07/18 06:11:11;;;;;;;4.68;2.90;;;32.80;91.60;;;;;;5018204;28;20275;-76
2023/07/18 06:13:36;;;;;;;5.28;2.70;;;32.90;91.30;;;;;;5016775;28;20736;-75
2023/07/18 06:16:02;;;;;;;5.68;2.60;;;31.70;91.70;;;;;;5021053;28;20215;-72
2023/07/18 06:18:28;;;;;;;4.43;3.13;;;31.70;92.10;;;;;;5019164;28;20208;-75
2023/07/18 06:20:54;;;;;;;5.13;3.15;;;32.60;91.80;;;;;;5011917;28;20231;-75
2023/07/18 06:23:20;;;;;;;5.40;2.95;;;32.70;90.90;;;;;;5013848;28;20683;-75
2023/07/18 06:25:46;;;;;;;4.68;2.83;;;33.40;90.20;;;;;;5015250;28;20200;-76
2023/07/18 06:28:11;;;;;;;4.03;2.33;;;34.10;89.30;;;;;;5011954;28;20204;-76
2023/07/18 06:30:37;;;;;;;4.90;2.45;;;33.60;88.30;;;;;;5008505;28;20601;-75
2023/07/18 06:33:03;;;;;;;4.53;2.50;;;33.90;88.00;;;;;;5014621;28;20220;-75
2023/07/18 06:35:29;;;;;;;3.85;2.58;;;34.00;87.50;;;;;;5012680;28;20266;-75
2023/07/18 06:37:55;;;;;;;4.47;2.75;;;34.20;86.10;;;;;;5014315;28;20233;-75
2023/07/18 06:40:20;;;;;;;3.90;2.47;;;34.00;86.00;;;;;;5008950;28;20223;-74
2023/07/18 06:42:46;;;;;;;7.38;3.15;;;34.10;86.10;;;;;;5011018;28;20713;-74
2023/07/18 06:45:12;;;;;;;5.57;3.28;;;34.20;86.00;;;;;;5012226;28;20298;-75
2023/07/18 06:47:38;;;;;;;6.03;2.92;;;34.70;84.60;;;;;;5013126;28;20197;-74
2023/07/18 06:50:04;;;;;;;4.55;2.95;;;35.50;83.10;;;;;;5017211;28;20184;-75
2023/07/18 06:52:29;;;;;;;3.60;2.65;;;35.80;81.30;;;;;;5014511;28;20191;-74
2023/07/18 06:54:55;;;;;;;4.65;2.60;;;35.40;80.10;;;;;;5009652;28;20213;-76
2023/07/18 06:57:21;;;;;;;6.32;3.03;;;35.90;79.50;;;;;;5013590;28;20209;-72
2023/07/18 06:59:46;;;;;;;5.22;3.50;;;36.30;78.10;;;;;;5008370;28;20208;-73
2023/07/18 07:02:13;;;;;;;3.47;2.88;;;36.60;77.30;;;;;;5009060;28;20603;-73
2023/07/18 07:04:39;;;;;;;4.07;2.72;;;37.00;75.60;;;;;;5008753;28;20216;-73
2023/07/18 07:07:06;;;;;;;5.00;2.92;;;37.20;74.10;;;;;;5009268;28;20690;-74
2023/07/18 07:09:33;;;;;;;8.30;3.17;;;37.70;73.40;;;;;;5009910;28;20219;-74
2023/07/18 07:11:59;;;;;;;3.90;3.50;;;37.80;72.70;;;;;;5009876;28;20209;-73
2023/07/18 07:14:24;;;;;;;6.10;3.55;;;37.50;72.80;;;;;;5006865;28;20331;-74
2023/07/18 07:16:50;;;;;;;3.80;3.03;;;37.40;72.70;;;;;;5027231;28;20208;-72
2023/07/18 07:19:16;;;;;;;4.00;3.20;;;36.90;72.90;;;;;;5006745;28;20281;-72
2023/07/18 07:21:42;;;;;;;7.43;4.57;;;37.20;72.80;;;;;;5011547;28;20246;-74
2023/07/18 07:24:08;;;;;;;6.72;3.33;;;37.10;72.40;;;;;;5007555;28;20619;-74
2023/07/18 07:26:37;;;;;;;6.88;3.42;;;38.10;71.60;;;;;;5015605;28;20303;-72
2023/07/18 07:29:03;;;;;;;5.25;3.03;;;38.30;70.20;;;;;;5012160;28;20646;-74
2023/07/18 07:31:28;;;;;;;5.07;3.30;;;38.70;69.30;;;;;;5011052;28;20254;-75
2023/07/18 07:33:54;;;;;;;5.03;3.28;;;38.40;68.70;;;;;;5009826;28;20208;-74
2023/07/18 07:36:20;;;;;;;4.82;3.30;;;38.90;68.60;;;;;;5007862;28;20788;-75
2023/07/18 07:38:46;;;;;;;3.45;3.08;;;38.60;68.20;;;;;;5017318;28;20258;-75
2023/07/18 07:41:12;;;;;;;5.03;3.03;;;38.20;68.20;;;;;;5011855;28;20195;-75
2023/07/18 07:43:38;;;;;;;3.33;3.00;;;38.60;67.00;;;;;;5019973;28;20712;-74
2023/07/18 07:46:04;;;;;;;4.97;3.05;;;37.40;68.00;;;;;;5007635;28;20216;-75
2023/07/18 07:48:29;;;;;;;5.43;2.78;;;37.40;68.80;;;;;;5007898;28;20580;-75
2023/07/18 07:50:58;;;;;;;4.88;2.50;;;35.40;70.50;;;;;;5013560;28;20682;-72
2023/07/18 07:53:24;;;;;;;5.97;3.00;;;35.50;71.00;;;;;;5015121;28;20209;-74
2023/07/18 07:55:49;;;;;;;4.78;2.72;;;35.40;71.00;;;;;;5016984;28;20283;-74
2023/07/18 07:58:15;;;;;;;5.07;3.15;;;35.50;71.30;;;;;;5016555;28;20598;-75
2023/07/18 08:00:41;;;;;;;5.72;3.13;;;35.80;71.30;;;;;;5021387;28;20591;-75
2023/07/18 08:03:06;;;;;;;4.93;3.03;;;36.50;69.90;;;;;;5023776;28;20219;-75
2023/07/18 08:05:32;;;;;;;4.35;2.90;;;36.50;70.00;;;;;;5020294;28;20210;-75
2023/07/18 08:07:58;;;;;;;4.88;3.00;;;37.00;69.60;;;;;;5014008;28;20180;-74
2023/07/18 08:10:24;;;;;;;4.30;2.97;;;36.90;68.10;;;;;;5007329;28;20207;-74
2023/07/18 08:12:50;;;;;;;8.95;6.65;;;37.40;67.10;;;;;;5017210;28;20215;-74
2023/07/18 08:15:15;;;;;;;7.38;4.13;;;37.30;66.10;;;;;;5008726;28;20210;-76
2023/07/18 08:17:41;;;;;;;4.57;3.25;;;36.90;66.00;;;;;;5016314;28;20207;-74
2023/07/18 08:20:08;;;;;;;5.35;3.42;;;36.80;67.20;;;;;;5011940;28;20292;-74
2023/07/18 08:22:34;;;;;;;5.32;2.85;;;37.00;66.80;;;;;;5015070;28;20176;-75
2023/07/18 08:25:01;;;;;;;6.50;3.67;;;37.30;66.10;;;;;;5014098;28;20277;-74
2023/07/18 08:27:26;;;;;;;5.55;2.90;;;37.50;66.00;;;;;;5014674;28;20201;-76
2023/07/18 08:29:52;;;;;;;7.20;3.42;;;37.20;65.70;;;;;;5016006;28;20216;-74
2023/07/18 08:32:17;;;;;;;4.15;2.50;;;37.00;65.20;;;;;;5017218;28;22665;-75
2023/07/18 08:34:43;;;;;;;4.78;2.88;;;36.60;66.20;;;;;;5018296;28;20196;-76
2023/07/18 08:37:09;;;;;;;4.85;2.55;;;36.40;66.10;;;;;;5016046;28;20286;-75
2023/07/18 08:39:36;;;;;;;4.40;2.65;;;35.80;67.20;;;;;;5018869;28;20210;-75
2023/07/18 08:42:05;;;;;;;4.78;2.70;;;35.60;68.70;;;;;;5013524;28;20790;-75
2023/07/18 08:44:31;;;;;;;5.45;2.35;;;35.20;68.80;;;;;;5019942;28;20293;-75
2023/07/18 08:47:00;;;;;;;7.30;2.90;;;34.90;69.00;;;;;;5020790;28;20172;-76
2023/07/18 08:49:29;;;;;;;6.25;2.70;;;33.40;71.60;;;;;;5008990;28;20299;-75
2023/07/18 08:51:55;;;;;;;4.85;2.20;;;31.80;74.20;;;;;;5014267;28;20235;-74
2023/07/18 08:54:21;;;;;;;4.78;2.38;;;31.50;75.90;;;;;;5007633;28;20217;-75
2023/07/18 08:56:46;;;;;;;4.68;2.03;;;31.60;74.10;;;;;;5016789;28;20546;-74
2023/07/18 08:59:12;;;;;;;3.25;1.95;;;32.30;72.80;;;;;;5012777;28;20650;-75
2023/07/18 09:01:48;;;;;;;3.88;2.20;;;32.20;72.40;;;;;;5018462;28;20675;-75
2023/07/18 09:04:14;;;;;;;3.28;2.03;;;33.00;72.00;;;;;;5009550;28;20569;-75
2023/07/18 09:06:59;;;;;;;4.68;2.53;;;33.50;70.60;;;;;;5017646;28;20207;-73
2023/07/18 09:09:26;;;;;;;5.78;3.33;;;33.80;70.00;;;;;;5014418;28;20201;-72
2023/07/18 09:11:58;;;;;;;4.90;2.08;;;34.00;69.80;;;;;;5017286;28;20204;-73
2023/07/18 09:14:29;;;;;;;4.25;2.13;;;34.40;68.70;;;;;;5021346;28;20584;-72
2023/07/18 09:16:55;;;;;;;5.65;2.58;;;34.50;67.70;;;;;;5016633;28;20743;-73
2023/07/18 09:19:39;;;;;;;3.97;2.33;;;34.50;67.70;;;;;;5013242;28;20758;-72
2023/07/18 09:22:07;;;;;;;2.88;1.90;;;34.60;67.10;;;;;;5021415;28;20219;-73
2023/07/18 09:24:35;;;;;;;2.45;1.55;;;34.40;67.50;;;;;;5007440;28;20209;-72
2023/07/18 09:27:03;;;;;;;4.25;1.77;;;34.50;66.00;;;;;;5015342;28;20205;-73
2023/07/18 09:29:29;;;;;;;6.03;2.15;;;34.60;66.00;;;;;;5004534;28;20214;-72
2023/07/18 09:31:55;;;;;;;4.85;2.35;;;34.20;66.90;;;;;;5019174;28;20169;-72
2023/07/18 09:34:21;;;;;;;4.80;2.20;;;34.10;67.90;;;;;;5009413;28;20743;-72
2023/07/18 09:37:01;;;;;;;5.97;2.30;;;33.10;68.00;;;;;;5012354;28;20231;-72
2023/07/18 09:39:27;;;;;;;4.55;1.55;;;33.50;69.40;;;;;;5014124;28;20201;-73
2023/07/18 09:41:55;;;;;;;3.55;1.92;;;33.10;67.60;;;;;;5015428;28;20645;-71
2023/07/18 09:44:23;;;;;;;3.53;1.33;;;33.30;67.90;;;;;;5011232;28;20212;-72
2023/07/18 09:46:50;;;;;;;5.03;2.17;;;33.20;67.70;;;;;;5017507;28;20196;-73
2023/07/18 09:49:17;;;;;;;2.83;1.60;;;33.20;68.20;;;;;;5011988;28;20243;-72
2023/07/18 09:52:04;;;;;;;3.40;1.65;;;32.90;68.40;;;;;;5016897;28;20214;-72
2023/07/18 09:54:31;;;;;;;3.03;2.08;;;32.70;68.10;;;;;;5016204;28;20231;-72
2023/07/18 09:57:01;;;;;;;4.82;1.92;;;32.00;67.90;;;;;;5010393;28;20265;-72
2023/07/18 09:59:28;;;;;;;3.42;1.65;;;31.90;68.60;;;;;;5007467;28;20598;-72
2023/07/18 10:01:55;;;;;;;3.33;1.50;;;31.90;68.60;;;;;;5014779;28;20232;-72
2023/07/18 10:04:21;;;;;;;2.53;1.98;;;31.60;67.90;;;;;;5009195;28;20258;-73
2023/07/18 10:06:48;;;;;;;3.13;1.48;;;31.10;69.60;;;;;;5013960;28;20205;-73
2023/07/18 10:09:15;;;;;;;4.78;1.98;;;30.90;70.10;;;;;;5011600;28;20212;-72
2023/07/18 10:11:59;;;;;;;4.43;2.55;;;30.50;71.40;;;;;;5012696;28;20202;-73
2023/07/18 10:14:46;;;;;;;5.00;2.30;;;30.90;71.80;;;;;;5011970;28;20301;-72
2023/07/18 10:17:38;;;;;;;5.38;2.35;;;30.90;72.10;;;;;;5011398;28;20181;-72
2023/07/18 10:20:19;;;;;;;3.42;1.73;;;30.20;72.50;;;;;;5012550;28;20220;-72
2023/07/18 10:22:58;;;;;;;5.05;1.98;;;29.90;74.10;;;;;;5014192;28;20169;-73
2023/07/18 10:25:28;;;;;;;2.88;1.60;;;30.20;73.90;;;;;;5013875;28;20224;-73
2023/07/18 10:27:54;;;;;;;5.05;2.00;;;30.30;73.10;;;;;;5021427;28;20667;-72
2023/07/18 10:30:20;;;;;;;2.30;1.60;;;30.70;72.50;;;;;;5015843;28;20208;-73
2023/07/18 10:32:56;;;;;;;3.67;1.98;;;30.80;71.60;;;;;;5025232;28;20208;-72
2023/07/18 10:35:26;;;;;;;3.70;2.65;;;30.30;72.70;;;;;;5012627;28;20231;-73
2023/07/18 10:37:58;;;;;;;4.22;2.20;;;30.10;71.90;;;;;;5014155;28;20197;-72
2023/07/18 10:40:43;;;;;;;5.75;3.15;;;30.20;71.60;;;;;;5012095;28;20281;-73
2023/07/18 10:43:10;;;;;;;5.00;2.22;;;30.30;72.20;;;;;;5012016;28;20250;-72
2023/07/18 10:45:41;;;;;;;3.53;1.85;;;30.20;72.90;;;;;;5011696;28;21060;-73
2023/07/18 10:48:14;;;;;;;4.47;2.45;;;29.50;72.70;;;;;;5015890;28;20222;-72
2023/07/18 10:50:41;;;;;;;2.63;1.67;;;29.30;73.20;;;;;;5033295;28;20661;-72
2023/07/18 10:53:14;;;;;;;4.25;1.90;;;29.40;72.30;;;;;;5017511;28;20196;-76
2023/07/18 10:55:40;;;;;;;2.67;2.20;;;29.60;73.30;;;;;;5032008;28;20548;-72
2023/07/18 10:58:11;;;;;;;3.40;2.20;;;29.60;72.40;;;;;;5017800;28;20215;-72
2023/07/18 11:00:39;;;;;;;4.32;2.50;;;29.60;73.40;;;;;;5018543;28;20205;-72
2023/07/18 11:03:04;;;;;;;5.45;3.50;;;29.40;74.10;;;;;;5018823;28;20224;-73
2023/07/18 11:05:30;;;;;;;22.42;14.88;;;28.90;74.50;;;;;;5025929;28;20239;-73
2023/07/18 11:07:56;;;;;;;20.10;11.88;;;28.60;74.60;;;;;;5021156;28;20189;-72
2023/07/18 11:10:21;;;;;;;11.60;7.10;;;28.70;75.40;;;;;;5012997;28;20215;-72
2023/07/18 11:12:47;;;;;;;9.15;3.78;;;29.00;74.60;;;;;;5010932;28;20715;-72
2023/07/18 11:15:12;;;;;;;3.92;2.90;;;29.00;74.60;;;;;;5015145;28;20240;-73
2023/07/18 11:17:38;;;;;;;8.50;4.63;;;28.80;74.70;;;;;;5012493;28;20239;-72
2023/07/18 11:20:04;;;;;;;3.80;2.75;;;28.70;74.90;;;;;;5014150;28;20334;-73
2023/07/18 11:22:31;;;;;;;3.08;1.90;;;28.80;75.50;;;;;;5008972;28;20791;-73
2023/07/18 11:24:59;;;;;;;5.10;2.88;;;28.60;75.50;;;;;;5016944;28;20216;-73
2023/07/18 11:27:26;;;;;;;6.05;1.85;;;28.50;76.40;;;;;;5009560;28;20583;-73
2023/07/18 11:30:08;;;;;;;3.85;1.90;;;28.10;76.40;;;;;;5017814;28;20204;-72
2023/07/18 11:32:42;;;;;;;3.97;2.17;;;27.90;76.70;;;;;;5006420;28;20201;-73
2023/07/18 11:35:18;;;;;;;6.93;4.60;;;27.90;77.00;;;;;;5018114;28;20223;-72
2023/07/18 11:37:46;;;;;;;5.78;2.72;;;28.10;77.50;;;;;;5018210;28;20717;-73
2023/07/18 11:40:21;;;;;;;1.70;1.60;;;28.50;76.00;;;;;;5016433;28;20223;-74
2023/07/18 11:42:56;;;;;;;1.77;1.60;;;28.50;75.50;;;;;;5032002;28;20200;-73
2023/07/18 11:45:23;;;;;;;8.15;1.85;;;28.00;76.30;;;;;;4998554;28;20287;-74
2023/07/18 11:47:53;;;;;;;2.67;1.90;;;28.20;76.00;;;;;;5010208;28;20675;-73
2023/07/18 11:50:19;;;;;;;4.53;1.55;;;28.30;75.80;;;;;;5011902;28;20239;-72
2023/07/18 11:52:47;;;;;;;3.85;1.98;;;28.10;75.70;;;;;;5008951;28;20182;-73
2023/07/18 11:55:15;;;;;;;3.45;2.50;;;28.00;75.70;;;;;;5015230;28;20208;-73
2023/07/18 11:57:41;;;;;;;4.20;1.83;;;28.10;75.40;;;;;;5009349;28;20205;-73
2023/07/18 12:00:08;;;;;;;3.83;2.42;;;28.10;75.60;;;;;;5017971;28;20234;-73
2023/07/18 12:02:34;;;;;;;2.90;2.05;;;28.20;75.50;;;;;;5013195;28;20209;-73
2023/07/18 12:05:00;;;;;;;4.40;2.13;;;28.00;75.00;;;;;;5015898;28;20192;-73
2023/07/18 12:07:26;;;;;;;3.10;2.03;;;28.10;75.90;;;;;;5014495;28;20169;-73
2023/07/18 12:09:52;;;;;;;2.50;2.00;;;28.10;75.50;;;;;;5017254;28;20709;-73
2023/07/18 12:12:19;;;;;;;4.00;1.90;;;28.20;76.10;;;;;;5017746;28;20220;-74
2023/07/18 12:14:45;;;;;;;3.78;1.92;;;28.40;75.70;;;;;;5019850;28;20213;-74
2023/07/18 12:17:11;;;;;;;2.50;1.60;;;28.30;75.20;;;;;;5018088;28;20184;-73
2023/07/18 12:19:36;;;;;;;3.47;2.60;;;27.90;75.20;;;;;;5018296;28;20184;-73
2023/07/18 12:22:02;;;;;;;5.68;3.10;;;27.90;75.80;;;;;;5018914;28;20610;-73
2023/07/18 12:24:28;;;;;;;6.38;4.03;;;27.90;76.30;;;;;;5012575;28;20216;-73
2023/07/18 12:26:53;;;;;;;4.65;2.40;;;28.00;77.10;;;;;;5007248;28;20566;-74
2023/07/18 12:29:19;;;;;;;4.55;2.75;;;27.90;77.20;;;;;;5017065;28;20220;-73
2023/07/18 12:31:51;;;;;;;5.38;3.35;;;28.00;77.20;;;;;;5009720;28;20223;-73
2023/07/18 12:34:17;;;;;;;5.07;2.50;;;28.10;77.00;;;;;;5016453;28;20208;-74
2023/07/18 12:36:44;;;;;;;5.75;1.95;;;28.10;76.30;;;;;;5008936;28;20233;-74
2023/07/18 12:39:11;;;;;;;5.68;3.13;;;28.00;75.80;;;;;;5016384;28;20218;-73
2023/07/18 12:41:36;;;;;;;2.13;1.75;;;27.90;76.00;;;;;;5012858;28;20221;-73
2023/07/18 12:44:02;;;;;;;5.03;2.25;;;27.90;76.30;;;;;;5017810;28;20203;-74
2023/07/18 12:46:28;;;;;;;5.20;2.60;;;28.20;76.80;;;;;;5014891;28;20181;-73